< < Back
Terminal Aerodrome Forecast


Current Version              Previous Versions:   1  2  3  4  5  6  7  8  9  

Terminal Aerodrome Forecast

001
FTUS44 KOHX 210500
TAFCSV
TAF
KCSV 210530Z 2106/2206 05003KT P6SM FEW200
     FM211500 07005KT P6SM SCT250
     FM212200 12005KT P6SM SCT250
     FM220200 15004KT P6SM BKN035=



Latest METAR

905
SAUS70 KWBC 212300 RRA
MTRCSV
METAR KCSV 212253Z AUTO 00000KT 10SM OVC028 09/02 A3008 RMK AO2 SLP194
T00890022


USA.gov is the U.S. government's official web portal to all federal, state and local government web resources and services.